Time;durP1;ratioP1;P1;durP2;ratioP2;P2;SDS_P1;SDS_P2;PMS_P1;PMS_P2;Temp;Humidity;BMP_temperature;BMP_pressure;BME280_temperature;BME280_humidity;BME280_pressure;Samples;Min_cycle;Max_cycle;Signal;HPM_P1;HPM_P2
2021/07/10 00:02:07;;;;;;;;;;;;;;;29.51;38.00;100899.38;5078332;28;797;-36
2021/07/10 00:04:32;;;;;;;;;;;;;;;29.39;38.16;100894.50;5077001;28;931;-36
2021/07/10 00:06:58;;;;;;;;;;;;;;;29.44;38.17;100893.91;5078191;28;1902;-36
2021/07/10 00:09:23;;;;;;;;;;;;;;;29.40;38.16;100885.31;5078196;28;924;-36
2021/07/10 00:11:49;;;;;;;;;;;;;;;29.48;38.10;100881.63;5078122;28;760;-35
2021/07/10 00:14:14;;;;;;;;;;;;;;;29.46;38.11;100878.28;5078429;28;867;-35
2021/07/10 00:16:39;;;;;;;;;;;;;;;29.42;38.21;100877.84;5078446;28;803;-36
2021/07/10 00:19:04;;;;;;;;;;;;;;;29.46;38.25;100881.00;5077242;28;959;-35
2021/07/10 00:21:30;;;;;;;;;;;;;;;29.39;38.22;100878.25;5078377;28;760;-35
2021/07/10 00:23:55;;;;;;;;;;;;;;;29.44;38.16;100881.19;5078229;28;764;-35
2021/07/10 00:26:20;;;;;;;;;;;;;;;29.47;38.13;100885.38;5078004;28;1972;-35
2021/07/10 00:28:45;;;;;;;;;;;;;;;29.41;38.22;100886.16;5077999;28;993;-36
2021/07/10 00:31:11;;;;;;;;;;;;;;;29.43;38.28;100886.78;5077987;28;822;-42
2021/07/10 00:33:36;;;;;;;;;;;;;;;29.46;38.11;100889.13;5077240;28;959;-35
2021/07/10 00:36:02;;;;;;;;;;;;;;;29.45;38.33;100890.16;5078540;28;820;-35
2021/07/10 00:38:27;;;;;;;;;;;;;;;29.42;38.29;100901.38;5077814;28;1391;-34
2021/07/10 00:40:52;;;;;;;;;;;;;;;29.33;38.67;100890.69;5077520;28;847;-36
2021/07/10 00:43:17;;;;;;;;;;;;;;;29.43;38.40;100889.50;5077558;28;752;-35
2021/07/10 00:45:43;;;;;;;;;;;;;;;29.37;38.64;100882.16;5077862;28;767;-36
2021/07/10 00:48:08;;;;;;;;;;;;;;;29.44;38.47;100881.19;5077107;28;1981;-35
2021/07/10 00:50:33;;;;;;;;;;;;;;;29.43;38.54;100875.94;5077661;28;1057;-36
2021/07/10 00:52:59;;;;;;;;;;;;;;;29.45;38.50;100876.59;5076383;28;835;-34
2021/07/10 00:55:24;;;;;;;;;;;;;;;29.41;38.50;100872.63;5076854;28;1039;-36
2021/07/10 00:57:50;;;;;;;;;;;;;;;29.37;38.58;100865.91;5077210;28;779;-36
2021/07/10 01:00:16;;;;;;;;;;;;;;;29.34;38.68;100859.00;5077464;28;740;-36
2021/07/10 01:02:42;;;;;;;;;;;;;;;29.36;38.55;100864.25;5077098;28;780;-33
2021/07/10 01:05:08;;;;;;;;;;;;;;;29.37;38.81;100858.63;5076732;28;951;-35
2021/07/10 01:07:33;;;;;;;;;;;;;;;29.39;38.67;100853.00;5077015;28;1981;-37
2021/07/10 01:09:58;;;;;;;;;;;;;;;29.30;38.91;100849.59;5077035;28;811;-35
2021/07/10 01:12:24;;;;;;;;;;;;;;;29.36;38.66;100839.84;5077332;28;756;-36
2021/07/10 01:14:49;;;;;;;;;;;;;;;29.38;38.84;100835.91;5076703;28;871;-42
2021/07/10 01:17:14;;;;;;;;;;;;;;;29.37;38.77;100842.38;5076950;28;768;-36
2021/07/10 01:19:39;;;;;;;;;;;;;;;29.36;38.90;100832.56;5076624;28;955;-36
2021/07/10 01:22:07;;;;;;;;;;;;;;;29.29;39.15;100832.50;5076878;28;752;-38
2021/07/10 01:24:32;;;;;;;;;;;;;;;29.30;38.81;100820.63;5076925;28;759;-41
2021/07/10 01:26:57;;;;;;;;;;;;;;;29.31;38.74;100816.06;5077000;28;1974;-34
2021/07/10 01:29:23;;;;;;;;;;;;;;;29.30;38.91;100814.38;5077033;28;731;-36
2021/07/10 01:31:48;;;;;;;;;;;;;;;29.28;38.85;100811.84;5076736;28;886;-45
2021/07/10 01:34:13;;;;;;;;;;;;;;;29.36;38.50;100815.47;5076388;28;907;-37
2021/07/10 01:36:39;;;;;;;;;;;;;;;29.43;38.46;100817.19;5076895;28;809;-35
2021/07/10 01:39:05;;;;;;;;;;;;;;;29.37;38.61;100812.56;5076658;28;750;-36
2021/07/10 01:41:38;;;;;;;;;;;;;;;29.36;38.59;100807.34;5058712;28;827;-37
2021/07/10 01:44:04;;;;;;;;;;;;;;;29.37;38.92;100814.41;5076741;28;815;-36
2021/07/10 01:46:29;;;;;;;;;;;;;;;29.29;38.94;100805.41;5076299;28;1973;-44
2021/07/10 01:48:54;;;;;;;;;;;;;;;29.33;38.90;100801.28;5076556;28;1006;-36
2021/07/10 01:51:19;;;;;;;;;;;;;;;29.29;39.06;100797.28;5076917;28;756;-36
2021/07/10 01:53:45;;;;;;;;;;;;;;;29.29;38.77;100807.28;5076273;28;859;-37
2021/07/10 01:56:10;;;;;;;;;;;;;;;29.29;38.85;100816.25;5076201;28;1111;-36
2021/07/10 01:58:35;;;;;;;;;;;;;;;29.34;38.83;100808.34;5076774;28;783;-35
2021/07/10 02:01:00;;;;;;;;;;;;;;;29.25;38.94;100809.53;5076212;28;867;-34
2021/07/10 02:03:26;;;;;;;;;;;;;;;29.25;39.06;100803.28;5075934;28;1025;-34
2021/07/10 02:05:52;;;;;;;;;;;;;;;29.27;39.09;100806.63;5080469;28;1115;-35
2021/07/10 02:08:18;;;;;;;;;;;;;;;29.33;38.99;100803.13;5080134;28;1971;-36
2021/07/10 02:10:43;;;;;;;;;;;;;;;29.29;39.11;100807.28;5080347;28;813;-34
2021/07/10 02:13:09;;;;;;;;;;;;;;;29.28;39.06;100800.19;5080637;28;804;-36
2021/07/10 02:15:35;;;;;;;;;;;;;;;29.34;39.25;100807.53;5080026;28;805;-37
2021/07/10 02:18:00;;;;;;;;;;;;;;;29.41;38.92;100807.59;5080592;28;824;-34
2021/07/10 02:20:28;;;;;;;;;;;;;;;29.31;38.81;100808.75;5079795;28;962;-45
2021/07/10 02:22:54;;;;;;;;;;;;;;;29.36;38.91;100810.88;5080399;28;770;-36
2021/07/10 02:25:20;;;;;;;;;;;;;;;29.24;39.20;100807.03;5080038;28;753;-36
2021/07/10 02:27:45;;;;;;;;;;;;;;;29.29;39.06;100808.13;5080422;28;1905;-37
2021/07/10 02:30:11;;;;;;;;;;;;;;;29.28;39.07;100802.91;5080375;28;763;-35
2021/07/10 02:32:36;;;;;;;;;;;;;;;29.22;39.38;100807.22;5080273;28;744;-37
2021/07/10 02:35:03;;;;;;;;;;;;;;;29.27;39.13;100801.22;5079892;28;1002;-36
2021/07/10 02:37:28;;;;;;;;;;;;;;;29.26;38.94;100802.25;5079778;28;830;-36
2021/07/10 02:39:54;;;;;;;;;;;;;;;29.25;39.10;100796.00;5080364;28;739;-36
2021/07/10 02:42:19;;;;;;;;;;;;;;;29.26;39.07;100797.66;5080339;28;747;-44
2021/07/10 02:44:44;;;;;;;;;;;;;;;29.30;38.76;100792.69;5079328;28;779;-37
2021/07/10 02:47:10;;;;;;;;;;;;;;;29.31;39.14;100792.50;5079791;28;1909;-35
2021/07/10 02:49:35;;;;;;;;;;;;;;;29.23;39.26;100792.63;5079660;28;954;-36
2021/07/10 02:52:00;;;;;;;;;;;;;;;29.26;39.15;100791.41;5079567;28;760;-35
2021/07/10 02:54:26;;;;;;;;;;;;;;;29.23;39.17;100786.41;5079327;28;1199;-38
2021/07/10 02:56:51;;;;;;;;;;;;;;;29.23;39.25;100792.63;5080169;28;831;-35
2021/07/10 02:59:16;;;;;;;;;;;;;;;29.28;39.20;100783.94;5079760;28;795;-34
2021/07/10 03:01:41;;;;;;;;;;;;;;;29.21;39.44;100790.13;5079566;28;819;-36
2021/07/10 03:04:07;;;;;;;;;;;;;;;29.27;39.20;100779.53;5078947;28;938;-36
2021/07/10 03:06:32;;;;;;;;;;;;;;;29.30;39.38;100788.13;5079394;28;1914;-39
2021/07/10 03:08:57;;;;;;;;;;;;;;;29.26;39.47;100786.81;5079444;28;787;-35
2021/07/10 03:11:23;;;;;;;;;;;;;;;29.18;37.75;100787.81;5079524;28;752;-45
2021/07/10 03:13:48;;;;;;;;;;;;;;;28.51;35.50;100787.19;5079434;28;914;-42
2021/07/10 03:16:13;;;;;;;;;;;;;;;27.95;36.01;100787.53;5077741;28;812;-42
2021/07/10 03:18:38;;;;;;;;;;;;;;;27.75;36.73;100781.84;5077900;28;1171;-37
2021/07/10 03:21:04;;;;;;;;;;;;;;;27.73;36.41;100779.34;5079324;28;799;-37
2021/07/10 03:23:29;;;;;;;;;;;;;;;27.68;36.39;100780.88;5079174;28;740;-37
2021/07/10 03:25:54;;;;;;;;;;;;;;;27.62;36.19;100782.47;5079045;28;752;-37
2021/07/10 03:28:20;;;;;;;;;;;;;;;27.64;36.42;100788.53;5079279;28;1905;-35
2021/07/10 03:30:52;;;;;;;;;;;;;;;27.24;36.86;100786.88;5078702;28;807;-36
2021/07/10 03:33:18;;;;;;;;;;;;;;;27.16;37.36;100778.03;5078612;28;998;-35
2021/07/10 03:35:43;;;;;;;;;;;;;;;27.49;36.77;100783.94;5078995;28;923;-37
2021/07/10 03:38:08;;;;;;;;;;;;;;;27.75;36.56;100776.44;5079289;28;795;-36
2021/07/10 03:40:33;;;;;;;;;;;;;;;27.12;38.26;100781.09;5078991;28;914;-36
2021/07/10 03:42:59;;;;;;;;;;;;;;;27.53;37.33;100791.72;5078941;28;759;-36
2021/07/10 03:45:24;;;;;;;;;;;;;;;26.83;38.14;100777.25;5078200;28;817;-35
2021/07/10 03:47:49;;;;;;;;;;;;;;;26.40;39.22;100775.00;5078769;28;1910;-35
2021/07/10 03:50:15;;;;;;;;;;;;;;;26.52;38.69;100784.38;5078271;28;999;-37
2021/07/10 03:52:40;;;;;;;;;;;;;;;26.86;38.71;100771.50;5078088;28;1506;-39
2021/07/10 03:55:07;;;;;;;;;;;;;;;26.29;40.08;100770.84;5078038;28;1000;-35
2021/07/10 03:57:32;;;;;;;;;;;;;;;27.00;39.01;100774.41;5078827;28;867;-38
2021/07/10 03:59:58;;;;;;;;;;;;;;;27.18;38.82;100779.53;5078290;28;769;-36
2021/07/10 04:02:23;;;;;;;;;;;;;;;26.59;38.38;100764.78;5078569;28;799;-37
2021/07/10 04:04:48;;;;;;;;;;;;;;;25.80;41.07;100761.94;5078220;28;1006;-36
2021/07/10 04:07:14;;;;;;;;;;;;;;;26.15;40.42;100769.72;5077634;28;1909;-41
2021/07/10 04:09:39;;;;;;;;;;;;;;;25.27;42.03;100767.75;5078826;28;787;-37
2021/07/10 04:12:04;;;;;;;;;;;;;;;24.97;42.54;100767.44;5078904;28;787;-37
2021/07/10 04:14:31;;;;;;;;;;;;;;;24.67;43.07;100770.59;5078260;28;752;-35
2021/07/10 04:16:56;;;;;;;;;;;;;;;24.21;44.47;100775.34;5078156;28;743;-37
2021/07/10 04:19:22;;;;;;;;;;;;;;;24.24;44.07;100778.72;5078004;28;1091;-35
2021/07/10 04:21:47;;;;;;;;;;;;;;;24.35;45.43;100775.72;5077369;28;803;-38
2021/07/10 04:24:12;;;;;;;;;;;;;;;25.33;45.29;100779.69;5078184;28;768;-37
2021/07/10 04:26:38;;;;;;;;;;;;;;;25.68;45.71;100778.47;5077752;28;1897;-35
2021/07/10 04:29:03;;;;;;;;;;;;;;;25.10;43.17;100777.69;5077827;28;826;-36
2021/07/10 04:31:28;;;;;;;;;;;;;;;23.95;45.34;100778.91;5077774;28;791;-32
2021/07/10 04:33:53;;;;;;;;;;;;;;;25.41;44.41;100777.84;5077279;28;907;-38
2021/07/10 04:36:19;;;;;;;;;;;;;;;25.60;45.27;100777.63;5077761;28;779;-42
2021/07/10 04:38:44;;;;;;;;;;;;;;;24.36;43.99;100784.63;5077936;28;887;-37
2021/07/10 04:41:09;;;;;;;;;;;;;;;23.53;48.26;100777.84;5078035;28;775;-36
2021/07/10 04:43:35;;;;;;;;;;;;;;;25.27;40.99;100778.53;5077060;28;835;-36
2021/07/10 04:46:00;;;;;;;;;;;;;;;24.92;39.76;100784.91;5077372;28;751;-36
2021/07/10 04:48:26;;;;;;;;;;;;;;;22.65;45.75;100777.59;5077689;28;1906;-36
2021/07/10 04:50:51;;;;;;;;;;;;;;;24.51;42.48;100785.66;5077130;28;1005;-36
2021/07/10 04:53:16;;;;;;;;;;;;;;;25.30;42.81;100789.81;5077788;28;791;-37
2021/07/10 04:55:42;;;;;;;;;;;;;;;22.92;44.78;100775.81;5077508;28;1235;-36
2021/07/10 04:58:07;;;;;;;;;;;;;;;23.96;43.77;100775.22;5077016;28;731;-35
2021/07/10 05:00:32;;;;;;;;;;;;;;;25.34;38.69;100776.00;5077213;28;738;-36
2021/07/10 05:02:58;;;;;;;;;;;;;;;23.14;43.94;100775.50;5077579;28;1493;-37
2021/07/10 05:05:23;;;;;;;;;;;;;;;23.22;45.77;100779.09;5076827;28;971;-33
2021/07/10 05:07:48;;;;;;;;;;;;;;;25.12;39.02;100790.00;5076839;28;1971;-37
2021/07/10 05:10:14;;;;;;;;;;;;;;;23.93;41.51;100782.75;5077692;28;819;-34
2021/07/10 05:12:39;;;;;;;;;;;;;;;23.28;45.54;100784.84;5077216;28;717;-34
2021/07/10 05:15:04;;;;;;;;;;;;;;;25.15;38.56;100788.78;5076926;28;843;-36
2021/07/10 05:17:30;;;;;;;;;;;;;;;24.00;40.92;100799.91;5076703;28;1362;-36
2021/07/10 05:19:55;;;;;;;;;;;;;;;23.26;45.68;100789.50;5077165;28;958;-39
2021/07/10 05:22:20;;;;;;;;;;;;;;;25.07;38.69;100789.66;5076870;28;1074;-37
2021/07/10 05:24:46;;;;;;;;;;;;;;;24.38;39.76;100796.03;5076357;28;863;-36
2021/07/10 05:27:11;;;;;;;;;;;;;;;23.29;45.08;100792.72;5058836;28;1961;-36
2021/07/10 05:29:36;;;;;;;;;;;;;;;25.03;38.83;100788.28;5076763;28;820;-37
2021/07/10 05:32:02;;;;;;;;;;;;;;;24.36;39.72;100792.72;5077230;28;828;-37
2021/07/10 05:34:27;;;;;;;;;;;;;;;23.83;43.34;100788.25;5076982;28;1002;-37
2021/07/10 05:36:53;;;;;;;;;;;;;;;25.20;37.77;100794.53;5076206;28;993;-37
2021/07/10 05:39:18;;;;;;;;;;;;;;;23.53;41.86;100787.72;5075778;28;807;-36
2021/07/10 05:41:44;;;;;;;;;;;;;;;23.71;42.65;100790.34;5076699;28;895;-36
2021/07/10 05:44:09;;;;;;;;;;;;;;;25.16;37.12;100787.78;5076218;28;804;-37
2021/07/10 05:46:34;;;;;;;;;;;;;;;23.79;41.58;100785.03;5076396;28;1956;-38
2021/07/10 05:48:59;;;;;;;;;;;;;;;24.28;39.13;100788.97;5076293;28;966;-37
2021/07/10 05:51:25;;;;;;;;;;;;;;;25.35;36.59;100793.81;5076452;28;879;-38
2021/07/10 05:53:50;;;;;;;;;;;;;;;22.82;42.54;100789.31;5076677;28;919;-37
2021/07/10 05:56:15;;;;;;;;;;;;;;;24.33;37.71;100797.41;5076321;28;1163;-38
2021/07/10 05:58:41;;;;;;;;;;;;;;;25.17;38.49;100800.25;5076214;28;760;-37
2021/07/10 06:01:06;;;;;;;;;;;;;;;23.25;41.33;100791.38;5076406;28;829;-34
2021/07/10 06:03:31;;;;;;;;;;;;;;;24.91;34.99;100793.16;5076035;28;1030;-45
2021/07/10 06:05:56;;;;;;;;;;;;;;;25.16;35.52;100790.47;5076260;28;1096;-41
2021/07/10 06:08:22;;;;;;;;;;;;;;;23.32;42.13;100791.59;5076338;28;1964;-46
2021/07/10 06:10:47;;;;;;;;;;;;;;;24.96;35.04;100789.97;5076707;28;843;-44
2021/07/10 06:13:12;;;;;;;;;;;;;;;24.21;37.45;100794.16;5076152;28;720;-43
2021/07/10 06:15:38;;;;;;;;;;;;;;;24.29;37.79;100790.66;5076253;28;760;-41
2021/07/10 06:18:03;;;;;;;;;;;;;;;25.22;34.80;100789.81;5076427;28;779;-43
2021/07/10 06:20:28;;;;;;;;;;;;;;;23.36;40.42;100787.56;5075745;28;1018;-44
2021/07/10 06:22:54;;;;;;;;;;;;;;;24.73;37.38;100799.50;5076090;28;1487;-44
2021/07/10 06:25:19;;;;;;;;;;;;;;;24.46;39.45;100793.38;5076204;28;502;-44
2021/07/10 06:27:45;;;;;;;;;;;;;;;23.56;43.47;100800.81;5076016;28;1965;-44
2021/07/10 06:30:11;;;;;;;;;;;;;;;25.00;36.95;100805.63;5076059;28;843;-44
2021/07/10 06:32:38;;;;;;;;;;;;;;;22.72;43.00;100804.66;5076744;28;775;-41
2021/07/10 06:35:03;;;;;;;;;;;;;;;24.85;36.57;100797.34;5075883;28;978;-39
2021/07/10 06:37:29;;;;;;;;;;;;;;;23.23;42.15;100794.22;5076786;28;803;-40
2021/07/10 06:39:54;;;;;;;;;;;;;;;24.67;37.46;100797.47;5075803;28;867;-42
2021/07/10 06:42:20;;;;;;;;;;;;;;;23.50;40.17;100805.00;5075680;28;822;-40
2021/07/10 06:44:45;;;;;;;;;;;;;;;23.80;40.27;100791.25;5076295;28;744;-42
2021/07/10 06:47:10;;;;;;;;;;;;;;;24.93;38.57;100794.69;5076137;28;1914;-43
2021/07/10 06:49:36;;;;;;;;;;;;;;;22.62;44.85;100792.13;5075254;28;955;-42
2021/07/10 06:52:01;;;;;;;;;;;;;;;24.73;38.07;100795.97;5080028;28;889;-38
2021/07/10 06:54:27;;;;;;;;;;;;;;;24.39;42.06;100795.06;5079339;28;1292;-39
2021/07/10 06:56:52;;;;;;;;;;;;;;;23.63;44.06;100785.78;5079917;28;827;-46
2021/07/10 06:59:17;;;;;;;;;;;;;;;24.56;42.10;100801.31;5079744;28;775;-44
2021/07/10 07:01:44;;;;;;;;;;;;;;;24.51;41.56;100793.75;5079706;28;859;-41
2021/07/10 07:04:09;;;;;;;;;;;;;;;22.98;45.08;100785.94;5078636;28;983;-39
2021/07/10 07:06:34;;;;;;;;;;;;;;;24.19;40.21;100788.09;5079753;28;1914;-43
2021/07/10 07:08:59;;;;;;;;;;;;;;;23.71;42.62;100787.66;5079152;28;878;-43
2021/07/10 07:11:25;;;;;;;;;;;;;;;22.95;44.45;100788.94;5079415;28;811;-42
2021/07/10 07:13:50;;;;;;;;;;;;;;;24.93;39.03;100796.53;5079579;28;825;-43
2021/07/10 07:16:15;;;;;;;;;;;;;;;23.60;44.40;100791.47;5079428;28;740;-43
2021/07/10 07:18:41;;;;;;;;;;;;;;;23.04;44.75;100792.53;5078923;28;950;-42
2021/07/10 07:21:06;;;;;;;;;;;;;;;24.75;37.74;100797.50;5079060;28;831;-43
2021/07/10 07:23:31;;;;;;;;;;;;;;;22.81;43.72;100792.16;5079176;28;859;-43
2021/07/10 07:25:56;;;;;;;;;;;;;;;23.39;42.08;100802.53;5079495;28;833;-43
2021/07/10 07:28:22;;;;;;;;;;;;;;;24.60;38.40;100791.06;5079103;28;1937;-42
2021/07/10 07:30:47;;;;;;;;;;;;;;;23.68;43.15;100796.03;5078970;28;772;-39
2021/07/10 07:33:12;;;;;;;;;;;;;;;23.78;43.97;100803.97;5078709;28;1160;-40
2021/07/10 07:35:38;;;;;;;;;;;;;;;23.78;43.47;100796.78;5078731;28;1141;-43
2021/07/10 07:38:03;;;;;;;;;;;;;;;25.04;37.22;100798.88;5079038;28;776;-42
2021/07/10 07:40:28;;;;;;;;;;;;;;;22.25;45.05;100796.53;5079103;28;795;-43
2021/07/10 07:42:55;;;;;;;;;;;;;;;24.27;38.70;100798.06;5078780;28;861;-42
2021/07/10 07:45:21;;;;;;;;;;;;;;;23.35;41.40;100802.00;5078796;28;763;-42
2021/07/10 07:47:46;;;;;;;;;;;;;;;23.75;42.42;100796.25;5078800;28;1961;-43
2021/07/10 07:50:12;;;;;;;;;;;;;;;25.12;37.84;100798.06;5077900;28;959;-40
2021/07/10 07:52:37;;;;;;;;;;;;;;;23.23;44.75;100806.78;5078584;28;847;-40
2021/07/10 07:55:03;;;;;;;;;;;;;;;23.04;45.73;100800.56;5078793;28;1071;-40
2021/07/10 07:57:28;;;;;;;;;;;;;;;23.56;45.34;100792.78;5078453;28;779;-40
2021/07/10 07:59:53;;;;;;;;;;;;;;;23.60;45.27;100792.31;5078395;28;815;-41
2021/07/10 08:02:22;;;;;;;;;;;;;;;23.94;44.11;100801.38;5078162;28;751;-40
2021/07/10 08:04:48;;;;;;;;;;;;;;;25.15;37.67;100804.94;5077378;28;1026;-38
2021/07/10 08:07:13;;;;;;;;;;;;;;;22.85;44.80;100796.22;5078350;28;1969;-39
2021/07/10 08:09:38;;;;;;;;;;;;;;;23.82;41.93;100795.44;5078876;28;783;-42
2021/07/10 08:12:04;;;;;;;;;;;;;;;25.00;38.10;100804.78;5077510;28;1005;-43
2021/07/10 08:14:29;;;;;;;;;;;;;;;22.74;43.44;100799.94;5078784;28;724;-43
2021/07/10 08:16:54;;;;;;;;;;;;;;;23.40;42.42;100804.25;5078220;28;798;-39
2021/07/10 08:19:20;;;;;;;;;;;;;;;24.69;36.64;100800.84;5077529;28;963;-42
2021/07/10 08:21:45;;;;;;;;;;;;;;;22.73;42.88;100800.97;5077887;28;943;-42
2021/07/10 08:24:10;;;;;;;;;;;;;;;23.89;39.24;100803.72;5078112;28;775;-42
2021/07/10 08:26:36;;;;;;;;;;;;;;;24.42;38.25;100800.94;5077699;28;1954;-40
2021/07/10 08:29:01;;;;;;;;;;;;;;;23.33;40.97;100794.13;5078556;28;811;-42
2021/07/10 08:31:27;;;;;;;;;;;;;;;23.24;42.59;100795.03;5077718;28;847;-42
2021/07/10 08:33:52;;;;;;;;;;;;;;;24.85;35.56;100791.09;5076820;28;1151;-41
2021/07/10 08:36:17;;;;;;;;;;;;;;;22.73;41.51;100785.72;5078125;28;747;-42
2021/07/10 08:38:43;;;;;;;;;;;;;;;23.52;41.11;100781.53;5077918;28;799;-42
2021/07/10 08:41:08;;;;;;;;;;;;;;;24.90;35.72;100780.69;5077261;28;794;-42
2021/07/10 08:43:33;;;;;;;;;;;;;;;23.96;39.62;100779.72;5077626;28;850;-41
2021/07/10 08:46:00;;;;;;;;;;;;;;;22.89;42.01;100781.50;5077823;28;783;-41
2021/07/10 08:48:26;;;;;;;;;;;;;;;24.63;37.66;100790.72;5076585;28;1960;-42
2021/07/10 08:50:51;;;;;;;;;;;;;;;23.73;39.38;100781.16;5077078;28;1001;-39
2021/07/10 08:53:16;;;;;;;;;;;;;;;24.89;36.00;100779.84;5059972;28;799;-39
2021/07/10 08:55:42;;;;;;;;;;;;;;;24.00;38.85;100783.78;5077099;28;1206;-39
2021/07/10 08:58:07;;;;;;;;;;;;;;;24.72;36.40;100779.00;5077695;28;799;-38
2021/07/10 09:00:34;;;;;;;;;;;;;;;24.28;37.91;100772.84;5077439;28;836;-36
2021/07/10 09:03:00;;;;;;;;;;;;;;;24.42;37.75;100783.97;5076712;28;833;-37
2021/07/10 09:05:26;;;;;;;;;;;;;;;25.01;36.46;100779.53;5077008;28;1021;-36
2021/07/10 09:08:11;;;;;;;;;;;;;;;24.26;38.58;100774.84;5077666;28;2030;-37
2021/07/10 09:10:37;;;;;;;;;;;;;;;24.96;36.80;100782.72;5076816;28;738;-38
2021/07/10 09:13:02;;;;;;;;;;;;;;;24.59;37.64;100790.22;5077089;28;807;-38
2021/07/10 09:15:27;;;;;;;;;;;;;;;25.36;34.67;100772.13;5076719;28;768;-40
2021/07/10 09:17:53;;;;;;;;;;;;;;;23.97;40.70;100774.19;5076930;28;823;-41
2021/07/10 09:20:22;;;;;;;;;;;;;;;25.27;34.85;100781.22;5077082;28;1002;-37
2021/07/10 09:22:47;;;;;;;;;;;;;;;23.40;41.04;100778.25;5076964;28;804;-39
2021/07/10 09:25:23;;;;;;;;;;;;;;;25.14;35.38;100777.19;5076813;28;859;-40
2021/07/10 09:27:49;;;;;;;;;;;;;;;23.32;40.25;100773.63;5077137;28;1901;-39
2021/07/10 09:30:15;;;;;;;;;;;;;;;24.97;35.74;100783.59;5076480;28;812;-39
2021/07/10 09:32:40;;;;;;;;;;;;;;;23.88;39.08;100769.78;5076538;28;784;-38
2021/07/10 09:35:09;;;;;;;;;;;;;;;24.62;37.03;100776.47;5076178;28;958;-38
2021/07/10 09:37:36;;;;;;;;;;;;;;;24.63;36.85;100777.28;5059177;28;872;-40
2021/07/10 09:40:11;;;;;;;;;;;;;;;24.51;37.26;100777.59;5076432;28;903;-40
2021/07/10 09:42:40;;;;;;;;;;;;;;;25.12;36.52;100784.59;5076589;28;809;-37
2021/07/10 09:45:06;;;;;;;;;;;;;;;24.14;39.79;100776.13;5076667;28;752;-39
2021/07/10 09:47:32;;;;;;;;;;;;;;;25.31;34.79;100771.78;5076563;28;1967;-39
2021/07/10 09:49:57;;;;;;;;;;;;;;;23.85;40.14;100781.72;5076479;28;946;-39
2021/07/10 09:52:23;;;;;;;;;;;;;;;25.27;34.83;100771.31;5076475;28;759;-39
2021/07/10 09:54:50;;;;;;;;;;;;;;;23.38;40.08;100772.16;5076038;28;1175;-39
2021/07/10 09:57:19;;;;;;;;;;;;;;;25.13;35.54;100782.72;5077151;28;819;-38
2021/07/10 10:00:04;;;;;;;;;;;;;;;23.71;38.86;100769.72;5076645;28;858;-41
2021/07/10 10:02:43;;;;;;;;;;;;;;;25.07;35.05;100774.31;5075381;28;1236;-38
2021/07/10 10:05:10;;;;;;;;;;;;;;;23.73;38.64;100772.25;5076184;28;970;-42
2021/07/10 10:07:42;;;;;;;;;;;;;;;24.95;34.97;100767.59;5076231;28;1910;-36
2021/07/10 10:10:07;;;;;;;;;;;;;;;23.78;37.72;100774.44;5076763;28;803;-40
2021/07/10 10:12:33;;;;;;;;;;;;;;;24.72;35.34;100776.31;5076295;28;803;-39
2021/07/10 10:14:58;;;;;;;;;;;;;;;24.27;36.37;100771.16;5076627;28;751;-39
2021/07/10 10:17:24;;;;;;;;;;;;;;;24.52;36.72;100775.75;5076051;28;1386;-42
2021/07/10 10:19:50;;;;;;;;;;;;;;;25.60;33.13;100767.69;5075956;28;962;-39
2021/07/10 10:22:15;;;;;;;;;;;;;;;23.78;39.02;100761.88;5076418;28;772;-41
2021/07/10 10:24:43;;;;;;;;;;;;;;;25.29;34.10;100757.66;5076315;28;748;-39
2021/07/10 10:27:08;;;;;;;;;;;;;;;23.24;39.76;100765.50;5080556;28;1906;-39
2021/07/10 10:29:33;;;;;;;;;;;;;;;25.09;34.58;100762.56;5080924;28;757;-39
2021/07/10 10:31:58;;;;;;;;;;;;;;;23.95;37.97;100760.09;5079932;28;752;-39
2021/07/10 10:34:24;;;;;;;;;;;;;;;24.96;35.26;100763.91;5079620;28;915;-39
2021/07/10 10:36:49;;;;;;;;;;;;;;;24.61;35.78;100764.00;5080481;28;736;-41
2021/07/10 10:39:17;;;;;;;;;;;;;;;24.46;37.07;100758.44;5079976;28;767;-37
2021/07/10 10:41:43;;;;;;;;;;;;;;;25.47;33.85;100753.94;5080123;28;807;-38
2021/07/10 10:44:08;;;;;;;;;;;;;;;23.71;38.86;100747.38;5080292;28;791;-39
2021/07/10 10:46:52;;;;;;;;;;;;;;;25.34;34.02;100751.78;5079579;28;1967;-38
2021/07/10 10:49:36;;;;;;;;;;;;;;;23.41;38.97;100738.81;5079484;28;995;-38
2021/07/10 10:52:16;;;;;;;;;;;;;;;25.26;33.69;100742.69;5079716;28;499;-37
2021/07/10 10:54:49;;;;;;;;;;;;;;;23.63;38.37;100747.34;5079407;28;1094;-38
2021/07/10 10:57:15;;;;;;;;;;;;;;;25.25;33.86;100741.00;5080265;28;743;-38
2021/07/10 10:59:40;;;;;;;;;;;;;;;23.35;38.25;100738.44;5079761;28;815;-38
2021/07/10 11:02:30;;;;;;;;;;;;;;;24.92;33.98;100741.84;5079677;28;756;-38
2021/07/10 11:04:56;;;;;;;;;;;;;;;23.42;37.88;100738.66;5071224;28;1633;-36
2021/07/10 11:07:28;;;;;;;;;;;;;;;24.98;34.31;100750.28;5079743;28;1968;-38
2021/07/10 11:10:02;;;;;;;;;;;;;;;24.07;36.49;100730.25;5079250;28;810;-38
2021/07/10 11:12:45;;;;;;;;;;;;;;;24.60;35.23;100739.97;5079486;28;838;-37
2021/07/10 11:15:26;;;;;;;;;;;;;;;24.30;36.33;100741.28;5080037;28;807;-39
2021/07/10 11:17:51;;;;;;;;;;;;;;;24.70;35.17;100737.97;5079336;28;816;-39
2021/07/10 11:20:36;;;;;;;;;;;;;;;25.02;34.31;100733.63;5079105;28;994;-39
2021/07/10 11:23:20;;;;;;;;;;;;;;;24.48;35.80;100734.06;5078787;28;857;-39
2021/07/10 11:25:45;;;;;;;;;;;;;;;24.63;35.29;100728.88;5079114;28;810;-41
2021/07/10 11:28:17;;;;;;;;;;;;;;;24.30;36.82;100729.66;5079438;28;1968;-39
2021/07/10 11:31:05;;;;;;;;;;;;;;;25.54;33.27;100719.91;5078894;28;816;-38
2021/07/10 11:33:49;;;;;;;;;;;;;;;24.23;37.35;100725.94;5068208;28;1630;-38
2021/07/10 11:36:33;;;;;;;;;;;;;;;25.47;33.34;100717.06;5078894;28;811;-38
2021/07/10 11:38:58;;;;;;;;;;;;;;;24.20;37.10;100711.00;5078468;28;796;-37
2021/07/10 11:41:33;;;;;;;;;;;;;;;25.42;33.66;100711.34;5079258;28;1036;-41
2021/07/10 11:44:25;;;;;;;;;;;;;;;23.83;37.66;100704.97;5078782;28;768;-39
2021/07/10 11:46:59;;;;;;;;;;;;;;;25.38;33.58;100710.00;5074967;28;1960;-42
2021/07/10 11:49:46;;;;;;;;;;;;;;;23.99;37.75;100711.41;5078238;28;987;-39
2021/07/10 11:52:11;;;;;;;;;;;;;;;25.54;33.93;100706.44;5078796;28;798;-42
2021/07/10 11:54:37;;;;;;;;;;;;;;;23.22;39.60;100708.50;5078250;28;1202;-38
2021/07/10 11:57:03;;;;;;;;;;;;;;;25.10;34.91;100700.47;5078797;28;902;-39
2021/07/10 11:59:28;;;;;;;;;;;;;;;23.75;37.99;100713.84;5078647;28;791;-39
2021/07/10 12:01:53;;;;;;;;;;;;;;;25.02;34.97;100711.25;5060699;28;759;-39
2021/07/10 12:04:18;;;;;;;;;;;;;;;24.29;36.28;100706.50;5077434;28;946;-41
2021/07/10 12:06:44;;;;;;;;;;;;;;;24.57;35.98;100715.06;5078739;28;1914;-39
2021/07/10 12:09:09;;;;;;;;;;;;;;;25.20;34.77;100697.59;5078468;28;874;-39
2021/07/10 12:11:34;;;;;;;;;;;;;;;24.36;37.12;100699.44;5078636;28;807;-39
2021/07/10 12:14:03;;;;;;;;;;;;;;;25.48;33.90;100705.28;5059542;28;1071;-37
2021/07/10 12:16:29;;;;;;;;;;;;;;;23.57;39.74;100704.00;5077938;28;811;-43
2021/07/10 12:18:54;;;;;;;;;;;;;;;25.39;34.70;100699.06;5077942;28;1021;-42
2021/07/10 12:21:19;;;;;;;;;;;;;;;23.86;39.42;100691.19;5078196;28;796;-42
2021/07/10 12:23:55;;;;;;;;;;;;;;;24.57;37.76;100690.06;5077722;28;806;-42
2021/07/10 12:26:21;;;;;;;;;;;;;;;25.29;37.31;100688.47;5078655;28;870;-42
2021/07/10 12:28:48;;;;;;;;;;;;;;;24.42;40.61;100698.75;5077826;28;1967;-41
2021/07/10 12:31:15;;;;;;;;;;;;;;;24.65;39.99;100691.91;5077573;28;862;-39
2021/07/10 12:34:00;;;;;;;;;;;;;;;25.64;36.99;100690.94;5077444;28;1006;-38
2021/07/10 12:36:26;;;;;;;;;;;;;;;24.51;42.17;100690.69;5067197;28;1630;-40
2021/07/10 12:39:10;;;;;;;;;;;;;;;25.57;36.83;100687.25;5077768;28;821;-39
2021/07/10 12:41:35;;;;;;;;;;;;;;;23.81;42.46;100678.25;5077626;28;764;-37
2021/07/10 12:44:08;;;;;;;;;;;;;;;25.40;37.22;100681.06;5077810;28;863;-41
2021/07/10 12:46:59;;;;;;;;;;;;;;;24.55;40.60;100686.69;5077841;28;1968;-40
2021/07/10 12:49:32;;;;;;;;;;;;;;;24.87;38.49;100676.94;5053481;28;1515;-42
2021/07/10 12:51:57;;;;;;;;;;;;;;;25.36;38.81;100679.75;5077780;28;826;-42
2021/07/10 12:54:35;;;;;;;;;;;;;;;24.06;42.89;100675.66;5077254;28;760;-39